createdAt,value
2023-03-13T00:01:57.093Z,5.50
2023-03-13T00:04:24.466Z,4.72
2023-03-13T00:06:51.304Z,5.20
2023-03-13T00:09:18.472Z,5.35
2023-03-13T00:11:47.341Z,5.35
2023-03-13T00:14:14.265Z,5.38
2023-03-13T00:16:41.196Z,5.20
2023-03-13T00:19:09.160Z,5.68
2023-03-13T00:21:41.331Z,7.18
2023-03-13T00:24:11.227Z,6.63
2023-03-13T00:26:38.062Z,5.57
2023-03-13T00:29:04.966Z,6.20
2023-03-13T00:31:32.922Z,5.28
2023-03-13T00:34:02.221Z,5.72
2023-03-13T00:36:34.881Z,6.88
2023-03-13T00:39:02.040Z,5.78
2023-03-13T00:41:31.379Z,5.97
2023-03-13T00:43:58.671Z,5.47
2023-03-13T00:46:27.985Z,5.85
2023-03-13T00:48:55.154Z,6.30
2023-03-13T00:51:24.090Z,6.72
2023-03-13T00:53:51.126Z,7.20
2023-03-13T00:56:20.322Z,6.45
2023-03-13T00:58:48.689Z,7.05
2023-03-13T01:01:22.833Z,6.53
2023-03-13T01:04:01.717Z,5.80
2023-03-13T01:06:30.789Z,5.85
2023-03-13T01:08:58.191Z,6.90
2023-03-13T01:11:30.930Z,5.78
2023-03-13T01:14:00.548Z,5.40
2023-03-13T01:16:29.312Z,5.78
2023-03-13T01:18:59.766Z,5.47
2023-03-13T01:21:27.362Z,6.10
2023-03-13T01:23:54.916Z,6.32
2023-03-13T01:26:22.437Z,5.85
2023-03-13T01:28:49.349Z,5.72
2023-03-13T01:31:19.195Z,6.43
2023-03-13T01:33:48.102Z,6.05
2023-03-13T01:36:15.394Z,6.35
2023-03-13T01:38:42.559Z,6.32
2023-03-13T01:41:12.543Z,7.63
2023-03-13T01:43:40.017Z,7.05
2023-03-13T01:46:20.223Z,7.30
2023-03-13T01:48:52.996Z,7.82
2023-03-13T01:51:52.846Z,8.88
2023-03-13T01:54:34.837Z,8.27
2023-03-13T01:57:10.207Z,8.13
2023-03-13T01:59:46.444Z,8.57
2023-03-13T02:02:14.931Z,9.65
2023-03-13T02:04:53.112Z,7.95
2023-03-13T02:07:31.192Z,6.82
2023-03-13T02:09:58.468Z,8.10
2023-03-13T02:12:38.816Z,7.43
2023-03-13T02:15:08.418Z,7.40
2023-03-13T02:17:36.303Z,6.50
2023-03-13T02:20:04.078Z,7.95
2023-03-13T02:22:33.892Z,6.32
2023-03-13T02:25:03.585Z,6.70
2023-03-13T02:27:30.631Z,6.32
2023-03-13T02:29:59.327Z,6.32
2023-03-13T02:32:29.769Z,5.25
2023-03-13T02:35:02.142Z,5.40
2023-03-13T02:37:30.944Z,5.18
2023-03-13T02:40:03.002Z,5.20
2023-03-13T02:42:30.519Z,4.80
2023-03-13T02:44:57.455Z,5.30
2023-03-13T02:47:26.756Z,5.30
2023-03-13T02:49:53.619Z,5.78
2023-03-13T02:52:43.282Z,5.63
2023-03-13T02:55:15.641Z,5.38
2023-03-13T02:57:42.571Z,5.88
2023-03-13T03:00:13.245Z,5.70
2023-03-13T03:02:40.156Z,6.00
2023-03-13T03:05:07.301Z,6.00
2023-03-13T03:07:34.411Z,5.90
2023-03-13T03:10:01.313Z,6.30
2023-03-13T03:12:28.152Z,5.65
2023-03-13T03:14:54.992Z,6.57
2023-03-13T03:17:21.816Z,6.18
2023-03-13T03:19:48.625Z,6.22
2023-03-13T03:22:15.536Z,5.57
2023-03-13T03:24:42.384Z,5.75
2023-03-13T03:27:09.192Z,5.82
2023-03-13T03:29:36.134Z,5.80
2023-03-13T03:32:03.229Z,4.88
2023-03-13T03:34:30.404Z,4.90
2023-03-13T03:36:58.103Z,4.55
2023-03-13T03:39:25.223Z,5.65
2023-03-13T03:41:52.039Z,4.80
2023-03-13T03:44:18.845Z,4.68
2023-03-13T03:46:46.409Z,4.47
2023-03-13T03:49:13.334Z,5.18
2023-03-13T03:51:40.402Z,5.13
2023-03-13T03:54:07.228Z,4.70
2023-03-13T03:56:34.179Z,5.00
2023-03-13T03:59:01.130Z,4.43
2023-03-13T04:01:28.018Z,4.28
2023-03-13T04:03:54.819Z,4.65
2023-03-13T04:06:21.836Z,4.30
2023-03-13T04:08:48.876Z,3.95
2023-03-13T04:11:15.748Z,3.55
2023-03-13T04:13:42.595Z,4.03
2023-03-13T04:16:10.534Z,3.80
2023-03-13T04:18:37.507Z,3.42
2023-03-13T04:21:06.283Z,3.30
2023-03-13T04:23:33.126Z,3.10
2023-03-13T04:25:59.942Z,3.50
2023-03-13T04:28:26.843Z,3.50
2023-03-13T04:30:57.412Z,3.13
2023-03-13T04:33:25.400Z,3.15
2023-03-13T04:35:52.276Z,3.20
2023-03-13T04:38:19.348Z,3.88
2023-03-13T04:40:47.953Z,3.50
2023-03-13T04:43:14.850Z,3.42
2023-03-13T04:45:41.657Z,2.92
2023-03-13T04:48:08.546Z,2.90
2023-03-13T04:50:35.494Z,3.10
2023-03-13T04:53:02.265Z,3.00
2023-03-13T04:55:29.096Z,3.38
2023-03-13T04:57:56.030Z,2.80
2023-03-13T05:00:22.902Z,2.90
2023-03-13T05:02:49.723Z,2.72
2023-03-13T05:05:16.706Z,3.13
2023-03-13T05:07:43.592Z,3.20
2023-03-13T05:10:10.907Z,2.88
2023-03-13T05:12:38.415Z,3.85
2023-03-13T05:15:07.013Z,3.33
2023-03-13T05:17:33.944Z,2.97
2023-03-13T05:20:00.903Z,3.10
2023-03-13T05:22:27.736Z,3.00
2023-03-13T05:24:54.614Z,3.10
2023-03-13T05:27:21.498Z,2.83
2023-03-13T05:29:48.268Z,3.20
2023-03-13T05:32:15.042Z,3.10
2023-03-13T05:34:41.876Z,2.90
2023-03-13T05:37:08.790Z,2.85
2023-03-13T05:39:35.693Z,2.78
2023-03-13T05:42:02.596Z,3.47
2023-03-13T05:44:29.497Z,3.00
2023-03-13T05:46:56.342Z,3.47
2023-03-13T05:49:23.225Z,2.83
2023-03-13T05:51:50.036Z,3.00
2023-03-13T05:54:17.133Z,2.90
2023-03-13T05:56:45.034Z,3.03
2023-03-13T05:59:11.963Z,3.10
2023-03-13T06:01:38.802Z,2.72
2023-03-13T06:04:05.872Z,2.92
2023-03-13T06:06:33.028Z,2.50
2023-03-13T06:08:59.886Z,3.03
2023-03-13T06:11:27.169Z,3.40
2023-03-13T06:13:54.251Z,2.80
2023-03-13T06:16:21.185Z,2.83
2023-03-13T06:18:48.227Z,3.17
2023-03-13T06:21:15.012Z,3.00
2023-03-13T06:23:42.354Z,3.00
2023-03-13T06:26:09.252Z,2.78
2023-03-13T06:28:36.180Z,2.53
2023-03-13T06:31:04.970Z,3.03
2023-03-13T06:33:32.086Z,2.72
2023-03-13T06:36:01.329Z,3.17
2023-03-13T06:38:28.868Z,2.70
2023-03-13T06:40:55.740Z,3.08
2023-03-13T06:43:22.711Z,3.08
2023-03-13T06:45:49.844Z,2.80
2023-03-13T06:48:17.068Z,3.70
2023-03-13T06:50:44.213Z,2.75
2023-03-13T06:53:20.964Z,3.03
2023-03-13T06:55:49.192Z,2.88
2023-03-13T06:58:30.945Z,3.15
2023-03-13T07:01:00.011Z,3.30
2023-03-13T07:03:27.061Z,3.15
2023-03-13T07:05:57.680Z,4.40
2023-03-13T07:08:25.818Z,2.97
2023-03-13T07:10:53.803Z,3.35
2023-03-13T07:13:21.873Z,3.30
2023-03-13T07:15:49.110Z,3.95
2023-03-13T07:18:16.146Z,3.15
2023-03-13T07:20:43.537Z,2.88
2023-03-13T07:23:10.482Z,2.80
2023-03-13T07:25:37.350Z,2.88
2023-03-13T07:28:04.416Z,3.40
2023-03-13T07:30:31.255Z,3.08
2023-03-13T07:32:58.813Z,3.20
2023-03-13T07:35:25.700Z,2.47
2023-03-13T07:37:52.970Z,3.10
2023-03-13T07:40:19.854Z,2.92
2023-03-13T07:42:46.706Z,3.10
2023-03-13T07:45:13.637Z,3.00
2023-03-13T07:47:40.472Z,2.75
2023-03-13T07:50:08.404Z,3.05
2023-03-13T07:52:35.325Z,3.15
2023-03-13T07:55:02.148Z,2.63
2023-03-13T07:57:28.982Z,2.67
2023-03-13T07:59:55.896Z,2.70
2023-03-13T08:02:22.993Z,2.47
2023-03-13T08:04:53.499Z,2.60
2023-03-13T08:07:24.249Z,2.60
2023-03-13T08:09:51.536Z,3.10
2023-03-13T08:12:18.326Z,2.30
2023-03-13T08:14:45.174Z,2.30
2023-03-13T08:17:12.125Z,2.85
2023-03-13T08:19:39.081Z,2.63
2023-03-13T08:22:06.231Z,2.58
2023-03-13T08:24:33.057Z,2.63
2023-03-13T08:26:59.924Z,2.80
2023-03-13T08:29:26.805Z,2.88
2023-03-13T08:31:53.647Z,2.90
2023-03-13T08:34:20.688Z,2.47
2023-03-13T08:36:47.830Z,3.17
2023-03-13T08:39:17.221Z,3.30
2023-03-13T08:41:44.396Z,3.15
2023-03-13T08:44:14.084Z,3.00
2023-03-13T08:46:41.662Z,2.80
2023-03-13T08:49:09.093Z,2.90
2023-03-13T08:51:36.467Z,3.17
2023-03-13T08:54:04.586Z,2.70
2023-03-13T08:56:32.182Z,2.83
2023-03-13T08:59:01.086Z,2.53
2023-03-13T09:01:30.457Z,2.70
2023-03-13T09:03:58.083Z,2.67
2023-03-13T09:06:25.076Z,2.42
2023-03-13T09:08:52.009Z,2.65
2023-03-13T09:11:21.172Z,2.63
2023-03-13T09:13:50.022Z,2.08
2023-03-13T09:16:22.613Z,2.28
2023-03-13T09:18:51.568Z,2.10
2023-03-13T09:21:21.125Z,2.30
2023-03-13T09:23:48.240Z,2.03
2023-03-13T09:26:15.902Z,2.20
2023-03-13T09:28:43.486Z,1.70
2023-03-13T09:31:22.416Z,1.90
2023-03-13T09:33:50.423Z,2.13
2023-03-13T09:36:21.537Z,1.63
2023-03-13T09:38:49.565Z,1.80
2023-03-13T09:41:34.806Z,1.60
2023-03-13T09:44:10.612Z,1.52
2023-03-13T09:47:26.770Z,1.83
2023-03-13T09:49:57.122Z,2.00
2023-03-13T09:52:37.684Z,1.88
2023-03-13T09:55:22.583Z,2.00
2023-03-13T09:58:10.545Z,1.90
2023-03-13T10:00:40.396Z,1.80
2023-03-13T10:03:34.080Z,1.70
2023-03-13T10:06:06.560Z,1.98
2023-03-13T10:08:37.163Z,1.42
2023-03-13T10:11:11.859Z,1.80
2023-03-13T10:13:57.146Z,1.52
2023-03-13T10:16:45.140Z,1.63
2023-03-13T10:19:17.445Z,1.60
2023-03-13T10:21:49.086Z,1.75
2023-03-13T10:24:39.924Z,1.50
2023-03-13T10:27:09.579Z,1.60
2023-03-13T10:29:36.500Z,1.50
2023-03-13T10:32:09.394Z,1.80
2023-03-13T10:34:58.633Z,1.50
2023-03-13T10:37:27.001Z,1.80
2023-03-13T10:39:54.558Z,1.52
2023-03-13T10:42:31.390Z,1.30
2023-03-13T10:45:03.769Z,1.60
2023-03-13T10:47:34.921Z,1.30
2023-03-13T10:50:04.218Z,1.27
2023-03-13T10:52:44.005Z,1.30
2023-03-13T10:55:13.567Z,1.48
2023-03-13T10:57:44.646Z,1.75
2023-03-13T11:00:30.217Z,1.27
2023-03-13T11:02:57.444Z,1.05
2023-03-13T11:05:31.587Z,1.38
2023-03-13T11:07:58.543Z,1.05
2023-03-13T11:10:29.936Z,1.13
2023-03-13T11:12:58.017Z,1.30
2023-03-13T11:15:34.815Z,1.30
2023-03-13T11:18:15.919Z,1.20
2023-03-13T11:20:46.753Z,1.45
2023-03-13T11:23:40.950Z,1.10
2023-03-13T11:26:19.498Z,1.40
2023-03-13T11:29:03.487Z,1.00
2023-03-13T11:31:39.310Z,1.27
2023-03-13T11:34:12.931Z,1.05
2023-03-13T11:36:48.612Z,1.30
2023-03-13T11:39:37.250Z,1.10
2023-03-13T11:42:29.617Z,1.20
2023-03-13T11:45:01.192Z,1.27
2023-03-13T11:47:52.660Z,0.98
2023-03-13T11:50:34.548Z,1.27
2023-03-13T11:53:04.302Z,1.45
2023-03-13T11:55:51.113Z,1.08
2023-03-13T11:58:36.121Z,0.95
2023-03-13T12:01:18.540Z,0.80
2023-03-13T12:04:04.349Z,1.10
2023-03-13T12:07:04.593Z,1.42
2023-03-13T12:09:54.741Z,1.13
2023-03-13T12:12:32.863Z,1.00
2023-03-13T12:15:03.420Z,0.90
2023-03-13T12:17:39.081Z,1.20
2023-03-13T12:20:17.457Z,1.27
2023-03-13T12:22:55.231Z,1.00
2023-03-13T12:25:24.279Z,1.33
2023-03-13T12:28:15.526Z,1.00
2023-03-13T12:31:20.827Z,1.10
2023-03-13T12:34:05.518Z,1.20
2023-03-13T12:36:48.004Z,1.25
2023-03-13T12:39:29.202Z,1.10
2023-03-13T12:42:25.225Z,0.90
2023-03-13T12:44:52.209Z,1.23
2023-03-13T12:47:32.905Z,0.98
2023-03-13T12:50:11.949Z,0.90
2023-03-13T12:52:44.898Z,1.15
2023-03-13T12:55:37.888Z,1.48
2023-03-13T12:58:48.212Z,1.30
2023-03-13T13:01:40.950Z,1.10
2023-03-13T13:04:12.786Z,0.90
2023-03-13T13:07:04.133Z,1.00
2023-03-13T13:09:52.371Z,1.10
2023-03-13T13:12:25.225Z,1.30
2023-03-13T13:14:52.159Z,1.02
2023-03-13T13:17:50.123Z,1.10
2023-03-13T13:20:30.635Z,1.10
2023-03-13T13:23:16.301Z,1.38
2023-03-13T13:28:27.460Z,1.30
2023-03-13T13:30:56.468Z,1.30
2023-03-13T13:33:31.043Z,1.70
2023-03-13T13:36:10.053Z,1.20
2023-03-13T13:38:40.460Z,1.50
2023-03-13T13:41:10.396Z,1.50
2023-03-13T13:43:50.364Z,1.58
2023-03-13T13:46:34.292Z,1.10
2023-03-13T13:49:07.747Z,1.23
2023-03-13T13:51:37.247Z,1.17
2023-03-13T13:54:23.855Z,1.42
2023-03-13T13:57:01.237Z,0.95
2023-03-13T13:59:43.664Z,1.30
2023-03-13T14:02:11.025Z,1.55
2023-03-13T14:04:43.555Z,1.08
2023-03-13T14:07:25.350Z,1.20
2023-03-13T14:10:03.279Z,1.92
2023-03-13T14:12:36.764Z,1.10
2023-03-13T14:15:20.443Z,1.10
2023-03-13T14:17:51.563Z,1.30
2023-03-13T14:20:28.793Z,0.98
2023-03-13T14:23:01.941Z,1.13
2023-03-13T14:25:41.666Z,1.30
2023-03-13T14:28:27.255Z,1.20
2023-03-13T14:30:56.781Z,1.10
2023-03-13T14:33:27.023Z,1.35
2023-03-13T14:35:54.772Z,1.27
2023-03-13T14:38:26.773Z,1.20
2023-03-13T14:40:58.471Z,1.80
2023-03-13T14:43:28.756Z,1.50
2023-03-13T14:45:55.763Z,1.27
2023-03-13T14:48:34.063Z,1.77
2023-03-13T14:51:15.679Z,1.27
2023-03-13T14:53:55.531Z,1.40
2023-03-13T14:56:32.816Z,1.80
2023-03-13T14:59:09.008Z,1.40
2023-03-13T15:01:35.951Z,1.45
2023-03-13T15:04:02.865Z,1.30
2023-03-13T15:06:29.890Z,1.42
2023-03-13T15:09:15.479Z,1.33
2023-03-13T15:11:57.810Z,1.52
2023-03-13T15:14:42.665Z,1.90
2023-03-13T15:17:26.912Z,1.67
2023-03-13T15:19:59.115Z,1.33
2023-03-13T15:22:35.226Z,1.70
2023-03-13T15:25:06.703Z,1.35
2023-03-13T15:27:34.543Z,1.35
2023-03-13T15:30:01.580Z,2.13
2023-03-13T15:32:34.785Z,1.75
2023-03-13T15:35:03.461Z,1.63
2023-03-13T15:37:30.773Z,1.40
2023-03-13T15:39:58.144Z,1.83
2023-03-13T15:42:25.601Z,2.05
2023-03-13T15:44:52.472Z,1.50
2023-03-13T15:47:21.556Z,1.92
2023-03-13T15:49:48.752Z,1.95
2023-03-13T15:52:22.703Z,1.80
2023-03-13T15:54:51.546Z,1.58
2023-03-13T15:57:27.786Z,1.60
2023-03-13T15:59:54.978Z,1.95
2023-03-13T16:02:23.968Z,1.65
2023-03-13T16:04:51.723Z,1.60
2023-03-13T16:07:24.418Z,1.80
2023-03-13T16:09:54.312Z,1.60
2023-03-13T16:12:21.132Z,2.10
2023-03-13T16:14:48.071Z,1.73
2023-03-13T16:17:17.235Z,1.63
2023-03-13T16:19:45.373Z,1.30
2023-03-13T16:22:12.486Z,1.50
2023-03-13T16:24:40.194Z,1.65
2023-03-13T16:27:33.494Z,1.67
2023-03-13T16:30:01.922Z,1.65
2023-03-13T16:32:28.825Z,1.83
2023-03-13T16:34:55.651Z,1.80
2023-03-13T16:37:24.790Z,2.53
2023-03-13T16:39:51.686Z,1.70
2023-03-13T16:42:18.692Z,1.75
2023-03-13T16:44:45.481Z,1.75
2023-03-13T16:47:27.343Z,1.55
2023-03-13T16:49:54.299Z,2.25
2023-03-13T16:52:21.140Z,1.50
2023-03-13T16:54:48.087Z,1.98
2023-03-13T16:57:24.805Z,2.25
2023-03-13T16:59:51.917Z,1.58
2023-03-13T17:02:20.700Z,1.83
2023-03-13T17:04:48.335Z,2.20
2023-03-13T17:07:19.849Z,2.05
2023-03-13T17:09:46.921Z,1.83
2023-03-13T17:12:13.734Z,2.25
2023-03-13T17:14:40.750Z,2.00
2023-03-13T17:17:29.769Z,1.95
2023-03-13T17:19:57.514Z,1.60
2023-03-13T17:22:24.469Z,1.77
2023-03-13T17:24:51.393Z,1.60
2023-03-13T17:27:18.463Z,2.05
2023-03-13T17:29:45.381Z,1.80
2023-03-13T17:32:13.905Z,1.70
2023-03-13T17:34:41.379Z,2.05
2023-03-13T17:37:17.257Z,1.70
2023-03-13T17:39:45.141Z,3.45
2023-03-13T17:42:12.402Z,2.00
2023-03-13T17:44:39.391Z,2.05
2023-03-13T17:47:13.368Z,2.15
2023-03-13T17:49:40.235Z,1.83
2023-03-13T17:52:07.066Z,2.50
2023-03-13T17:54:34.155Z,2.58
2023-03-13T17:57:01.034Z,2.17
2023-03-13T17:59:29.407Z,2.05
2023-03-13T18:01:57.283Z,2.40
2023-03-13T18:04:24.192Z,2.20
2023-03-13T18:06:50.963Z,2.50
2023-03-13T18:09:20.863Z,2.53
2023-03-13T18:11:49.207Z,2.50
2023-03-13T18:14:16.058Z,2.00
2023-03-13T18:16:48.256Z,2.60
2023-03-13T18:19:22.785Z,2.05
2023-03-13T18:21:51.577Z,2.78
2023-03-13T18:24:18.477Z,2.40
2023-03-13T18:26:46.937Z,2.13
2023-03-13T18:29:26.772Z,2.38
2023-03-13T18:31:55.465Z,2.55
2023-03-13T18:34:23.549Z,2.55
2023-03-13T18:36:50.701Z,2.80
2023-03-13T18:39:18.605Z,3.15
2023-03-13T18:41:49.643Z,2.53
2023-03-13T18:44:19.159Z,2.90
2023-03-13T18:46:46.475Z,2.92
2023-03-13T18:49:20.814Z,4.22
2023-03-13T18:51:48.946Z,2.70
2023-03-13T18:54:17.317Z,3.00
2023-03-13T18:56:45.517Z,3.00
2023-03-13T18:59:14.209Z,2.95
2023-03-13T19:01:41.401Z,3.03
2023-03-13T19:04:08.400Z,3.10
2023-03-13T19:06:36.945Z,3.20
2023-03-13T19:14:38.052Z,4.22
2023-03-13T19:17:07.206Z,4.88
2023-03-13T19:19:34.138Z,4.40
2023-03-13T19:22:01.245Z,4.22
2023-03-13T19:24:28.692Z,4.57
2023-03-13T19:26:58.973Z,4.03
2023-03-13T19:29:27.885Z,3.78
2023-03-13T19:31:55.030Z,3.80
2023-03-13T19:34:22.108Z,3.50
2023-03-13T19:36:50.098Z,3.55
2023-03-13T19:39:19.607Z,4.20
2023-03-13T19:41:49.730Z,3.97
2023-03-13T19:44:17.662Z,3.53
2023-03-13T19:46:44.959Z,4.57
2023-03-13T19:49:14.640Z,4.88
2023-03-13T19:51:41.515Z,4.60
2023-03-13T19:54:12.088Z,4.82
2023-03-13T19:56:44.362Z,4.00
2023-03-13T19:59:17.543Z,4.07
2023-03-13T20:01:44.557Z,4.88
2023-03-13T20:04:12.323Z,4.72
2023-03-13T20:06:41.281Z,3.90
2023-03-13T20:09:11.679Z,4.03
2023-03-13T20:11:39.039Z,3.97
2023-03-13T20:14:06.691Z,3.65
2023-03-13T20:16:35.144Z,2.95
2023-03-13T20:19:03.013Z,3.10
2023-03-13T20:21:35.903Z,3.10
2023-03-13T20:24:03.719Z,2.47
2023-03-13T20:26:30.766Z,2.55
2023-03-13T20:28:58.132Z,2.55
2023-03-13T20:31:28.123Z,2.38
2023-03-13T20:33:55.945Z,2.35
2023-03-13T20:36:23.464Z,2.42
2023-03-13T20:38:50.748Z,2.35
2023-03-13T20:41:21.045Z,2.63
2023-03-13T20:43:47.822Z,2.38
2023-03-13T20:46:14.798Z,2.28
2023-03-13T20:48:42.428Z,2.25
2023-03-13T20:51:09.864Z,2.13
2023-03-13T20:53:38.727Z,2.50
2023-03-13T20:56:07.278Z,2.28
2023-03-13T20:58:34.843Z,2.00
2023-03-13T21:01:02.846Z,2.50
2023-03-13T21:03:35.015Z,2.65
2023-03-13T21:06:15.690Z,2.40
2023-03-13T21:08:43.376Z,2.00
2023-03-13T21:11:22.251Z,2.08
2023-03-13T21:13:50.406Z,2.10
2023-03-13T21:16:18.956Z,2.55
2023-03-13T21:18:46.319Z,3.05
2023-03-13T21:21:17.286Z,2.67
2023-03-13T21:23:45.081Z,2.00
2023-03-13T21:26:12.748Z,2.17
2023-03-13T21:28:40.599Z,2.42
2023-03-13T21:31:15.948Z,1.88
2023-03-13T21:33:44.663Z,2.15
2023-03-13T21:36:13.822Z,2.38
2023-03-13T21:38:41.011Z,2.33
2023-03-13T21:41:12.563Z,2.25
2023-03-13T21:43:41.694Z,2.50
2023-03-13T21:46:13.412Z,2.75
2023-03-13T21:48:41.974Z,2.13
2023-03-13T21:51:09.607Z,2.33
2023-03-13T21:53:37.543Z,2.38
2023-03-13T21:56:05.041Z,1.90
2023-03-13T21:58:31.927Z,2.00
2023-03-13T22:00:59.181Z,1.98
2023-03-13T22:03:26.767Z,1.80
2023-03-13T22:05:53.985Z,2.72
2023-03-13T22:08:21.057Z,2.05
2023-03-13T22:10:54.946Z,1.67
2023-03-13T22:13:22.183Z,2.10
2023-03-13T22:15:50.532Z,2.03
2023-03-13T22:18:17.882Z,2.50
2023-03-13T22:20:44.771Z,2.00
2023-03-13T22:23:12.409Z,2.47
2023-03-13T22:25:40.660Z,2.45
2023-03-13T22:28:08.131Z,2.47
2023-03-13T22:30:35.641Z,2.22
2023-03-13T22:33:03.990Z,1.85
2023-03-13T22:35:30.804Z,2.00
2023-03-13T22:37:57.637Z,1.73
2023-03-13T22:40:24.478Z,1.80
2023-03-13T22:42:51.773Z,2.08
2023-03-13T22:45:19.370Z,1.65
2023-03-13T22:47:46.288Z,2.00
2023-03-13T22:50:14.070Z,1.55
2023-03-13T22:52:41.072Z,1.30
2023-03-13T22:55:08.669Z,2.03
2023-03-13T22:57:35.477Z,1.60
2023-03-13T23:00:02.265Z,1.63
2023-03-13T23:02:29.435Z,1.88
2023-03-13T23:04:58.513Z,1.50
2023-03-13T23:07:29.796Z,1.60
2023-03-13T23:09:58.090Z,1.95
2023-03-13T23:12:26.027Z,2.13
2023-03-13T23:14:54.568Z,1.60
2023-03-13T23:17:21.396Z,1.73
2023-03-13T23:19:48.302Z,1.30
2023-03-13T23:22:18.213Z,1.40
2023-03-13T23:24:45.139Z,1.45
2023-03-13T23:27:12.055Z,1.30
2023-03-13T23:29:39.121Z,1.10
2023-03-13T23:32:06.251Z,1.08
2023-03-13T23:34:35.560Z,1.30
2023-03-13T23:37:02.472Z,1.45
2023-03-13T23:39:29.422Z,2.72
2023-03-13T23:41:56.319Z,1.55
2023-03-13T23:44:23.430Z,1.40
2023-03-13T23:46:50.390Z,1.33
2023-03-13T23:49:17.278Z,1.00
2023-03-13T23:51:44.236Z,1.40
2023-03-13T23:54:11.031Z,1.02
2023-03-13T23:56:37.866Z,1.70
2023-03-13T23:59:04.806Z,1.50
